Terminal Aerodrome Forecast
Issued by NWS Flagstaff, AZ

Home | Current Version | Previous Version | Text Only | Print | Product List | Glossary On
Versions: 1 2 3 4 5 6 7 8 9 10 11 12 13 14 15 16 17
000
FTUS45 KFGZ 232352 AAA
TAFFLG
TAF AMD
KFLG 232352Z 2400/2424 VRB08G16KT P6SM VCTS SCT060CB BKN080
      TEMPO 2400/2402 VRB15G25KT 2SM TSRA BKN070CB OVC100
     FM240200 VRB05KT P6SM SCT100
     FM241800 24010KT P6SM SCT100 PROB30 2420/2424 P6SM TS BKN050CB=

USA.gov is the U.S. government's official web portal to all federal, state and local government web resources and services.